Manito, IL (61546)

9:57 PM CST on February 06, 2016 (GMT -0600)
Manito | | Change Station
CLOSE
Current Station
Personal Weather Station
Location: Manito, IL
Elevation: 522 ft
Nearby Weather Stations
Active Advisory: Flood Warning

Elev 522 ft 40.43 °N, 89.78 °W | Updated 29 seconds ago

Clear
Clear
32.5 °F
Feels Like 32 °F
N
0.0
Wind Variable Wind from WSW
Gusts 0.0 mph

Today
High -- | Low -- °F
--% Chance of Precip.
Yesterday
High -- | Low -- °F
Precip. -- in
Pressure 30.13 in
Visibility 10.0 miles
Clouds Clear
Windchill 32 °F
Dew Point 27 °F
Humidity 79%
Rainfall 0.00 in
Snow Depth Not available.
7:03 AM 5:23 PM
Waning Crescent, 3% visible
METAR KPIA 070354Z 20004KT 10SM CLR 01/M04 A3011 RMK AO2 SLP203 T00111039 $
Pressure 30.13 in
Visibility 10.0 miles
Clouds Clear
Windchill 32 °F
Dew Point 27 °F
Humidity 79%
Rainfall 0.00 in
Snow Depth Not available.
7:03 AM 5:23 PM
Waning Crescent, 3% visible
METAR KPIA 070354Z 20004KT 10SM CLR 01/M04 A3011 RMK AO2 SLP203 T00111039 $

10-Day Weather Forecast

Almanac

Astronomy

Feb. 06, 2016 Rise Set
Actual Time
Civil Twilight
Nautical Twilight
Astronomical Twilight
Moon
Length of Visible Light
Length of Day
Tomorrow will be .
, % of the Moon is Illuminated

Today's Extremes

State Highs State Lows

Community

WunderPhotos

Upload Photos

1,891,154 photos uploaded!

WunderBlog® & News

Nearby

Air Quality

  Air Quality AQ Index Pollutant
Not available.

Snow Depth

Station Depth Elevation

Earthquake Activity

City Distance Mag. Time & Date
Minimum magnitude displayed is 2.5.

Coastal Water Temperatures

Place Temperature

Stations

Nearby Weather Stations

Station Location Temp. Windchill Dew Point Humidity Wind Precip. Elev Updated Type
                   

Watches & Warnings

Flood Warning
Issued: 7:40 PM CST Feb. 6, 2016 – National Weather Service

The Flood Warning continues for
the Illinois River at Havana.
* Until Wednesday morning.
* At 645 PM Saturday the stage was 13.4 feet.
* Flood stage is 14.0 feet.
* Forecast... the river is expected to rise to near flood stage
Tuesday afternoon.
* Impact... at 14.0 feet... minor flooding begins to agricultural areas
not protected by levees.



                  Fld observed forecast 6am
location stg stg day time sun Mon Tue

Illinois River
Havana 14 13.4 Sat 7 PM 13.5 13.7 13.9



Lat... Lon 4053 8988 4047 8980 4034 9002 4012 9017
      4018 9023 4039 9010